createdAt,value
2022-08-12T00:00:14.866Z,42.49
2022-08-12T00:02:03.865Z,42.74
2022-08-12T00:03:20.779Z,42.61
2022-08-12T00:04:42.325Z,42.40
2022-08-12T00:06:05.046Z,42.51
2022-08-12T00:07:30.129Z,41.80
2022-08-12T00:08:53.477Z,41.70
2022-08-12T00:10:14.429Z,41.83
2022-08-12T00:11:41.443Z,41.90
2022-08-12T00:13:02.408Z,41.96
2022-08-12T00:14:25.784Z,42.06
2022-08-12T00:15:48.293Z,42.18
2022-08-12T00:17:12.028Z,42.27
2022-08-12T00:18:33.336Z,42.33
2022-08-12T00:19:54.374Z,42.47
2022-08-12T00:21:15.583Z,42.41
2022-08-12T00:22:38.163Z,42.16
2022-08-12T00:24:01.123Z,42.34
2022-08-12T00:26:00.365Z,42.55
2022-08-12T00:27:06.161Z,42.57
2022-08-12T00:28:26.966Z,42.69
2022-08-12T00:29:48.371Z,42.55
2022-08-12T00:31:09.922Z,42.78
2022-08-12T00:32:35.021Z,42.55
2022-08-12T00:33:57.284Z,42.72
2022-08-12T00:35:19.795Z,42.87
2022-08-12T00:36:53.912Z,42.84
2022-08-12T00:38:15.256Z,42.81
2022-08-12T00:39:36.410Z,43.01
2022-08-12T00:40:59.021Z,43.21
2022-08-12T00:42:11.604Z,42.93
2022-08-12T00:43:17.375Z,42.77
2022-08-12T00:44:24.489Z,42.81
2022-08-12T00:45:47.809Z,42.82
2022-08-12T00:46:55.906Z,42.74
2022-08-12T00:47:58.164Z,42.82
2022-08-12T00:49:02.106Z,42.79
2022-08-12T00:50:05.570Z,42.99
2022-08-12T00:51:09.653Z,43.07
2022-08-12T00:52:14.046Z,43.32
2022-08-12T00:53:19.227Z,43.31
2022-08-12T00:54:21.547Z,43.50
2022-08-12T00:55:23.743Z,43.82
2022-08-12T00:56:28.673Z,44.04
2022-08-12T00:57:35.870Z,44.50
2022-08-12T00:58:45.666Z,44.34
2022-08-12T00:59:53.009Z,44.43
2022-08-12T01:01:08.576Z,44.15
2022-08-12T01:02:15.470Z,44.70
2022-08-12T01:03:20.234Z,44.53
2022-08-12T01:04:43.965Z,44.61
2022-08-12T01:06:11.184Z,44.54
2022-08-12T01:07:36.722Z,44.65
2022-08-12T01:08:58.932Z,44.37
2022-08-12T01:10:32.715Z,44.48
2022-08-12T01:11:36.467Z,44.38
2022-08-12T01:12:41.726Z,44.15
2022-08-12T01:13:47.690Z,44.45
2022-08-12T01:14:51.282Z,44.30
2022-08-12T01:15:56.051Z,44.40
2022-08-12T01:16:59.799Z,44.39
2022-08-12T01:18:05.552Z,44.23
2022-08-12T01:19:15.239Z,44.27
2022-08-12T01:20:41.297Z,43.81
2022-08-12T01:22:02.588Z,43.96
2022-08-12T01:23:31.886Z,43.86
2022-08-12T01:24:53.329Z,43.83
2022-08-12T01:25:57.634Z,44.06
2022-08-12T01:27:07.952Z,43.99
2022-08-12T01:28:14.510Z,43.85
2022-08-12T01:29:23.273Z,43.97
2022-08-12T01:30:31.263Z,43.89
2022-08-12T01:31:37.001Z,44.16
2022-08-12T01:32:42.483Z,44.22
2022-08-12T01:33:59.823Z,44.09
2022-08-12T01:35:17.582Z,44.36
2022-08-12T01:36:25.857Z,44.61
2022-08-12T01:37:30.698Z,44.51
2022-08-12T01:40:33.931Z,44.71
2022-08-12T01:41:19.374Z,44.97
2022-08-12T01:42:22.474Z,44.70
2022-08-12T01:43:25.791Z,45.02
2022-08-12T01:44:30.935Z,44.92
2022-08-12T01:45:43.137Z,44.79
2022-08-12T01:46:51.990Z,45.31
2022-08-12T01:48:26.131Z,44.80
2022-08-12T01:50:25.129Z,44.77
2022-08-12T01:52:21.217Z,44.98
2022-08-12T01:53:13.510Z,45.09
2022-08-12T01:54:20.449Z,45.38
2022-08-12T01:55:30.996Z,45.24
2022-08-12T01:56:43.948Z,44.80
2022-08-12T01:57:58.359Z,44.98
2022-08-12T01:59:25.995Z,45.06
2022-08-12T02:00:35.961Z,45.27
2022-08-12T02:01:50.349Z,44.97
2022-08-12T02:03:22.896Z,44.47
2022-08-12T02:05:01.679Z,44.87
2022-08-12T02:06:32.308Z,44.70
2022-08-12T02:08:03.027Z,44.76
2022-08-12T02:09:27.584Z,44.35
2022-08-12T02:11:13.900Z,44.20
2022-08-12T02:12:32.623Z,44.17
2022-08-12T02:13:58.448Z,44.24
2022-08-12T02:15:23.708Z,44.21
2022-08-12T02:16:47.835Z,44.19
2022-08-12T02:17:59.862Z,44.09
2022-08-12T02:19:23.071Z,44.04
2022-08-12T02:20:52.651Z,44.26
2022-08-12T02:22:04.914Z,43.99
2022-08-12T02:23:10.403Z,44.23
2022-08-12T02:24:18.728Z,44.21
2022-08-12T02:25:37.017Z,44.02
2022-08-12T02:26:43.240Z,44.18
2022-08-12T02:27:50.630Z,43.77
2022-08-12T02:28:53.448Z,44.03
2022-08-12T02:29:59.253Z,44.21
2022-08-12T02:31:05.417Z,44.22
2022-08-12T02:32:08.661Z,44.17
2022-08-12T02:33:14.489Z,43.97
2022-08-12T02:34:17.830Z,44.06
2022-08-12T02:35:25.976Z,44.15
2022-08-12T02:36:35.282Z,44.18
2022-08-12T02:37:39.943Z,43.95
2022-08-12T02:38:43.953Z,44.08
2022-08-12T02:39:50.039Z,44.34
2022-08-12T02:40:55.075Z,44.15
2022-08-12T02:42:03.005Z,44.25
2022-08-12T02:43:27.649Z,43.99
2022-08-12T02:44:35.907Z,44.06
2022-08-12T02:45:56.788Z,43.81
2022-08-12T02:47:04.235Z,44.27
2022-08-12T02:48:10.624Z,44.15
2022-08-12T02:49:35.602Z,43.89
2022-08-12T02:50:44.945Z,43.99
2022-08-12T02:51:47.752Z,44.00
2022-08-12T02:52:52.426Z,43.88
2022-08-12T02:54:04.342Z,43.84
2022-08-12T02:55:34.255Z,43.65
2022-08-12T02:56:41.924Z,43.96
2022-08-12T02:57:53.470Z,44.05
2022-08-12T02:58:56.380Z,43.97
2022-08-12T03:00:02.644Z,44.08
2022-08-12T03:01:11.794Z,44.00
2022-08-12T03:02:20.247Z,44.00
2022-08-12T03:03:27.281Z,44.24
2022-08-12T03:04:43.490Z,43.83
2022-08-12T03:05:59.390Z,43.85
2022-08-12T03:07:55.880Z,43.80
2022-08-12T03:08:57.443Z,44.15
2022-08-12T03:10:13.032Z,44.04
2022-08-12T03:11:37.716Z,43.98
2022-08-12T03:12:49.476Z,43.97
2022-08-12T03:13:58.113Z,44.16
2022-08-12T03:15:04.974Z,44.33
2022-08-12T03:16:08.656Z,44.32
2022-08-12T03:17:29.068Z,44.28
2022-08-12T03:18:35.234Z,44.13
2022-08-12T03:20:09.977Z,44.68
2022-08-12T03:21:08.913Z,44.59
2022-08-12T03:22:14.673Z,44.36
2022-08-12T03:23:29.723Z,44.69
2022-08-12T03:24:34.041Z,44.77
2022-08-12T03:25:41.391Z,44.82
2022-08-12T03:26:47.384Z,44.91
2022-08-12T03:27:58.305Z,44.62
2022-08-12T03:29:06.701Z,44.77
2022-08-12T03:30:11.119Z,45.02
2022-08-12T03:31:13.416Z,44.86
2022-08-12T03:32:36.099Z,45.04
2022-08-12T03:34:02.220Z,45.20
2022-08-12T03:35:07.941Z,45.14
2022-08-12T03:36:11.504Z,45.36
2022-08-12T03:37:15.590Z,44.98
2022-08-12T03:38:19.821Z,45.16
2022-08-12T03:39:41.521Z,45.14
2022-08-12T03:41:25.560Z,44.95
2022-08-12T03:42:30.887Z,45.19
2022-08-12T03:43:57.400Z,45.26
2022-08-12T03:45:51.636Z,44.94
2022-08-12T03:47:59.532Z,45.50
2022-08-12T03:49:20.785Z,45.99
2022-08-12T03:50:44.087Z,46.00
2022-08-12T03:52:07.823Z,45.92
2022-08-12T03:53:29.510Z,46.07
2022-08-12T03:54:50.339Z,45.95
2022-08-12T03:56:11.865Z,45.85
2022-08-12T03:57:32.583Z,46.34
2022-08-12T03:58:55.654Z,46.32
2022-08-12T04:00:24.047Z,46.61
2022-08-12T04:01:27.158Z,46.61
2022-08-12T04:02:33.982Z,46.83
2022-08-12T04:03:52.826Z,46.89
2022-08-12T04:04:56.293Z,47.16
2022-08-12T04:06:04.668Z,47.04
2022-08-12T04:07:11.903Z,47.37
2022-08-12T04:08:14.771Z,47.16
2022-08-12T04:09:19.845Z,47.57
2022-08-12T04:10:22.267Z,47.58
2022-08-12T04:11:47.200Z,47.22
2022-08-12T04:13:19.195Z,47.38
2022-08-12T04:14:21.539Z,47.84
2022-08-12T04:15:27.967Z,47.72
2022-08-12T04:16:30.296Z,47.73
2022-08-12T04:17:33.435Z,48.09
2022-08-12T04:18:36.247Z,48.00
2022-08-12T04:19:38.681Z,47.83
2022-08-12T04:20:44.388Z,47.76
2022-08-12T04:22:01.893Z,47.92
2022-08-12T04:23:07.483Z,47.87
2022-08-12T04:24:13.165Z,47.88
2022-08-12T04:25:15.553Z,48.14
2022-08-12T04:26:18.451Z,47.91
2022-08-12T04:27:20.733Z,47.84
2022-08-12T04:28:28.057Z,47.63
2022-08-12T04:30:29.231Z,47.67
2022-08-12T04:30:52.493Z,47.81
2022-08-12T04:31:56.102Z,47.98
2022-08-12T04:33:05.838Z,48.04
2022-08-12T04:34:10.565Z,47.79
2022-08-12T04:35:12.751Z,47.96
2022-08-12T04:36:17.665Z,47.75
2022-08-12T04:37:19.983Z,47.83
2022-08-12T04:38:25.441Z,47.84
2022-08-12T04:39:28.262Z,47.66
2022-08-12T04:40:33.035Z,47.75
2022-08-12T04:41:58.464Z,47.79
2022-08-12T04:43:07.209Z,47.76
2022-08-12T04:44:31.919Z,47.54
2022-08-12T04:45:39.200Z,47.83
2022-08-12T04:46:41.859Z,47.83
2022-08-12T04:47:47.649Z,47.86
2022-08-12T04:48:51.411Z,47.65
2022-08-12T04:49:53.640Z,47.72
2022-08-12T04:50:56.102Z,47.38
2022-08-12T04:51:59.744Z,47.54
2022-08-12T04:53:02.617Z,47.64
2022-08-12T04:54:05.394Z,47.26
2022-08-12T04:55:09.324Z,47.19
2022-08-12T04:56:11.925Z,47.05
2022-08-12T04:57:14.333Z,46.96
2022-08-12T04:58:29.947Z,47.10
2022-08-12T04:59:47.888Z,46.96
2022-08-12T05:01:00.275Z,46.91
2022-08-12T05:02:02.684Z,46.77
2022-08-12T05:03:11.765Z,47.07
2022-08-12T05:04:15.698Z,46.86
2022-08-12T05:05:26.775Z,46.79
2022-08-12T05:06:31.549Z,46.43
2022-08-12T05:07:34.263Z,46.29
2022-08-12T05:08:48.690Z,46.18
2022-08-12T05:10:00.204Z,46.10
2022-08-12T05:11:09.151Z,45.92
2022-08-12T05:12:11.448Z,45.47
2022-08-12T05:13:16.774Z,45.07
2022-08-12T05:14:18.976Z,45.04
2022-08-12T05:15:29.236Z,44.83
2022-08-12T05:16:34.105Z,44.11
2022-08-12T05:17:41.063Z,44.07
2022-08-12T05:18:45.959Z,43.73
2022-08-12T05:19:50.098Z,43.41
2022-08-12T05:20:52.377Z,43.24
2022-08-12T05:21:54.568Z,43.10
2022-08-12T05:23:12.934Z,42.78
2022-08-12T05:24:15.800Z,42.42
2022-08-12T05:25:22.265Z,42.24
2022-08-12T05:26:25.143Z,42.45
2022-08-12T05:27:27.350Z,42.29
2022-08-12T05:28:30.485Z,42.22
2022-08-12T05:30:07.423Z,41.63
2022-08-12T05:30:56.367Z,41.27
2022-08-12T05:31:58.673Z,40.94
2022-08-12T05:33:05.724Z,40.89
2022-08-12T05:34:07.939Z,40.62
2022-08-12T05:35:10.610Z,40.35
2022-08-12T05:36:15.060Z,40.01
2022-08-12T05:37:23.635Z,40.00
2022-08-12T05:38:44.598Z,39.81
2022-08-12T05:39:48.500Z,39.33
2022-08-12T05:40:51.257Z,39.11
2022-08-12T05:41:55.983Z,39.26
2022-08-12T05:42:58.276Z,38.87
2022-08-12T05:44:03.131Z,38.67
2022-08-12T05:45:06.904Z,38.71
2022-08-12T05:46:09.087Z,38.46
2022-08-12T05:47:15.265Z,38.16
2022-08-12T05:48:18.274Z,37.43
2022-08-12T05:49:20.479Z,37.57
2022-08-12T05:50:22.752Z,37.56
2022-08-12T05:51:39.588Z,37.00
2022-08-12T05:52:44.150Z,36.93
2022-08-12T05:53:46.622Z,37.22
2022-08-12T05:54:57.622Z,36.58
2022-08-12T05:56:00.296Z,36.79
2022-08-12T05:57:03.528Z,36.62
2022-08-12T05:58:06.136Z,36.11
2022-08-12T05:59:11.440Z,36.20
2022-08-12T06:00:16.456Z,36.00
2022-08-12T06:02:12.011Z,36.14
2022-08-12T06:02:49.139Z,36.08
2022-08-12T06:03:55.505Z,36.15
2022-08-12T06:05:00.455Z,35.91
2022-08-12T06:06:03.565Z,35.37
2022-08-12T06:08:00.102Z,34.95
2022-08-12T06:08:31.450Z,34.91
2022-08-12T06:09:33.674Z,34.93
2022-08-12T06:10:37.319Z,34.62
2022-08-12T06:11:53.619Z,34.35
2022-08-12T06:13:06.510Z,34.40
2022-08-12T06:14:11.929Z,34.42
2022-08-12T06:15:14.807Z,34.17
2022-08-12T06:16:22.078Z,33.68
2022-08-12T06:17:24.324Z,33.32
2022-08-12T06:18:29.719Z,33.09
2022-08-12T06:20:26.973Z,32.80
2022-08-12T06:21:01.858Z,32.61
2022-08-12T06:22:07.101Z,32.47
2022-08-12T06:23:10.793Z,32.36
2022-08-12T06:24:14.180Z,32.00
2022-08-12T06:25:22.073Z,31.75
2022-08-12T06:26:24.539Z,31.64
2022-08-12T06:27:26.723Z,31.54
2022-08-12T06:28:30.650Z,31.28
2022-08-12T06:30:08.552Z,31.18
2022-08-12T06:31:24.690Z,30.92
2022-08-12T06:32:27.549Z,30.83
2022-08-12T06:34:00.473Z,30.69
2022-08-12T06:35:25.937Z,30.43
2022-08-12T06:36:23.819Z,30.14
2022-08-12T06:37:26.223Z,30.00
2022-08-12T06:38:31.438Z,29.95
2022-08-12T06:39:36.540Z,29.68
2022-08-12T06:40:59.092Z,29.81
2022-08-12T06:42:36.674Z,29.47
2022-08-12T06:44:06.306Z,29.32
2022-08-12T06:45:02.196Z,29.54
2022-08-12T06:46:05.192Z,29.28
2022-08-12T06:47:07.508Z,28.92
2022-08-12T06:48:12.556Z,28.99
2022-08-12T06:49:14.794Z,28.70
2022-08-12T06:50:24.261Z,28.68
2022-08-12T06:51:28.813Z,28.44
2022-08-12T06:52:32.393Z,28.09
2022-08-12T06:53:34.904Z,28.08
2022-08-12T06:54:39.793Z,27.65
2022-08-12T06:55:56.752Z,27.66
2022-08-12T06:57:04.660Z,27.49
2022-08-12T06:58:10.780Z,27.47
2022-08-12T06:59:18.569Z,27.26
2022-08-12T07:00:28.525Z,27.13
2022-08-12T07:01:36.017Z,27.06
2022-08-12T07:02:38.339Z,27.17
2022-08-12T07:03:40.663Z,27.14
2022-08-12T07:04:43.513Z,26.93
2022-08-12T07:05:45.891Z,26.39
2022-08-12T07:06:49.504Z,26.58
2022-08-12T07:08:05.099Z,26.74
2022-08-12T07:09:16.391Z,25.86
2022-08-12T07:10:59.245Z,26.30
2022-08-12T07:12:01.574Z,25.96
2022-08-12T07:13:09.515Z,25.64
2022-08-12T07:14:13.495Z,25.37
2022-08-12T07:15:17.937Z,25.42
2022-08-12T07:16:21.639Z,25.44
2022-08-12T07:17:23.838Z,25.43
2022-08-12T07:18:31.489Z,25.19
2022-08-12T07:19:40.381Z,24.68
2022-08-12T07:20:53.296Z,24.52
2022-08-12T07:22:06.460Z,24.36
2022-08-12T07:23:08.922Z,24.14
2022-08-12T07:24:14.740Z,23.89
2022-08-12T07:25:37.864Z,24.13
2022-08-12T07:26:44.874Z,24.13
2022-08-12T07:27:57.289Z,24.32
2022-08-12T07:29:02.716Z,24.32
2022-08-12T07:30:14.617Z,24.28
2022-08-12T07:31:18.445Z,24.32
2022-08-12T07:32:29.584Z,24.38
2022-08-12T07:33:33.067Z,24.59
2022-08-12T07:34:37.512Z,24.29
2022-08-12T07:35:48.272Z,24.43
2022-08-12T07:36:51.350Z,24.87
2022-08-12T07:37:57.275Z,24.85
2022-08-12T07:38:59.618Z,24.80
2022-08-12T07:40:02.290Z,24.86
2022-08-12T07:41:14.487Z,24.94
2022-08-12T07:43:40.278Z,25.26
2022-08-12T07:44:44.011Z,25.56
2022-08-12T07:45:50.369Z,25.76
2022-08-12T07:46:53.213Z,25.68
2022-08-12T07:47:55.455Z,26.00
2022-08-12T07:49:01.833Z,25.97
2022-08-12T07:50:09.386Z,26.47
2022-08-12T07:51:24.750Z,26.37
2022-08-12T07:52:30.473Z,26.49
2022-08-12T07:53:33.487Z,26.94
2022-08-12T07:54:57.491Z,27.16
2022-08-12T07:55:59.706Z,27.15
2022-08-12T07:57:01.877Z,27.16
2022-08-12T07:58:04.482Z,27.37
2022-08-12T07:59:08.717Z,27.26
2022-08-12T08:00:11.824Z,27.62
2022-08-12T08:01:17.686Z,27.48
2022-08-12T08:02:19.962Z,27.51
2022-08-12T08:03:30.027Z,27.93
2022-08-12T08:04:53.660Z,27.83
2022-08-12T08:05:57.168Z,28.02
2022-08-12T08:07:04.492Z,27.73
2022-08-12T08:08:18.454Z,27.83
2022-08-12T08:09:25.585Z,28.18
2022-08-12T08:10:31.094Z,28.07
2022-08-12T08:11:51.821Z,27.86
2022-08-12T08:12:54.200Z,28.10
2022-08-12T08:13:56.378Z,28.03
2022-08-12T08:15:01.250Z,28.06
2022-08-12T08:16:05.869Z,28.03
2022-08-12T08:17:10.539Z,28.35
2022-08-12T08:18:26.434Z,27.86
2022-08-12T08:19:31.278Z,27.62
2022-08-12T08:20:38.025Z,27.63
2022-08-12T08:21:40.206Z,27.81
2022-08-12T08:22:43.214Z,27.74
2022-08-12T08:24:05.403Z,27.73
2022-08-12T08:25:34.861Z,27.40
2022-08-12T08:26:30.535Z,27.36
2022-08-12T08:27:45.783Z,27.32
2022-08-12T08:28:48.673Z,27.23
2022-08-12T08:29:51.225Z,27.43
2022-08-12T08:30:54.113Z,27.34
2022-08-12T08:32:00.131Z,27.27
2022-08-12T08:33:02.436Z,27.29
2022-08-12T08:34:33.454Z,27.32
2022-08-12T08:35:47.126Z,27.18
2022-08-12T08:36:52.656Z,27.18
2022-08-12T08:38:10.499Z,27.23
2022-08-12T08:39:23.594Z,26.91
2022-08-12T08:40:47.190Z,26.92
2022-08-12T08:42:14.108Z,26.71
2022-08-12T08:43:20.380Z,26.66
2022-08-12T08:44:22.725Z,26.45
2022-08-12T08:45:32.417Z,26.64
2022-08-12T08:46:38.372Z,26.27
2022-08-12T08:47:49.225Z,25.89
2022-08-12T08:48:51.833Z,25.96
2022-08-12T08:50:01.195Z,26.17
2022-08-12T08:51:05.672Z,26.38
2022-08-12T08:52:11.328Z,26.24
2022-08-12T08:53:16.383Z,26.03
2022-08-12T08:54:18.620Z,26.23
2022-08-12T08:55:27.528Z,26.35
2022-08-12T08:56:44.485Z,25.84
2022-08-12T08:57:50.289Z,25.69
2022-08-12T08:58:52.644Z,25.45
2022-08-12T08:59:55.511Z,25.28
2022-08-12T09:00:57.748Z,25.20
2022-08-12T09:02:00.845Z,25.11
2022-08-12T09:03:04.281Z,25.13
2022-08-12T09:05:13.105Z,25.12
2022-08-12T09:06:02.894Z,24.92
2022-08-12T09:07:16.998Z,24.90
2022-08-12T09:08:27.940Z,24.95
2022-08-12T09:09:34.142Z,25.04
2022-08-12T09:11:01.017Z,24.99
2022-08-12T09:12:27.474Z,24.92
2022-08-12T09:14:11.388Z,24.57
2022-08-12T09:14:55.074Z,24.45
2022-08-12T09:15:59.588Z,24.28
2022-08-12T09:17:05.469Z,24.19
2022-08-12T09:18:09.533Z,24.63
2022-08-12T09:19:27.292Z,24.11
2022-08-12T09:20:33.726Z,23.85
2022-08-12T09:23:01.297Z,24.03
2022-08-12T09:24:10.618Z,23.97
2022-08-12T09:25:25.344Z,23.70
2022-08-12T09:26:29.232Z,23.80
2022-08-12T09:28:15.521Z,23.65
2022-08-12T09:28:55.851Z,23.46
2022-08-12T09:30:09.908Z,23.32
2022-08-12T09:32:06.694Z,23.22
2022-08-12T09:33:04.492Z,23.24
2022-08-12T09:34:31.765Z,23.03
2022-08-12T09:35:33.788Z,22.89
2022-08-12T09:37:01.040Z,22.83
2022-08-12T09:38:04.496Z,22.56
2022-08-12T09:40:03.518Z,22.80
2022-08-12T09:40:55.823Z,22.99
2022-08-12T09:42:39.184Z,22.89
2022-08-12T09:44:05.897Z,22.79
2022-08-12T09:46:07.041Z,23.01
2022-08-12T09:46:46.497Z,23.01
2022-08-12T09:47:59.306Z,23.06
2022-08-12T09:49:04.131Z,23.00
2022-08-12T09:50:20.612Z,23.25
2022-08-12T09:51:23.562Z,23.06
2022-08-12T09:52:31.822Z,23.44
2022-08-12T09:54:08.412Z,24.06
2022-08-12T09:56:05.579Z,23.86
2022-08-12T09:57:00.130Z,23.79
2022-08-12T09:58:46.212Z,23.88
2022-08-12T10:00:17.091Z,24.25
2022-08-12T10:00:52.013Z,24.15
2022-08-12T10:02:45.560Z,24.17
2022-08-12T10:03:32.161Z,24.09
2022-08-12T10:04:37.479Z,24.42
2022-08-12T10:06:26.649Z,24.36
2022-08-12T10:07:25.108Z,24.64
2022-08-12T10:08:32.572Z,24.65
2022-08-12T10:09:58.155Z,24.62
2022-08-12T10:11:20.966Z,24.67
2022-08-12T10:13:07.219Z,24.75
2022-08-12T10:14:07.150Z,24.53
2022-08-12T10:16:01.944Z,24.72
2022-08-12T10:16:46.710Z,24.80
2022-08-12T10:17:56.645Z,24.84
2022-08-12T10:19:17.117Z,24.98
2022-08-12T10:20:20.081Z,24.86
2022-08-12T10:21:36.071Z,24.80
2022-08-12T10:22:44.845Z,24.95
2022-08-12T10:23:57.063Z,25.24
2022-08-12T10:25:18.297Z,24.98
2022-08-12T10:26:40.342Z,24.97
2022-08-12T10:28:04.899Z,24.74
2022-08-12T10:30:03.290Z,24.71
2022-08-12T10:30:59.222Z,25.09
2022-08-12T10:32:21.849Z,24.91
2022-08-12T10:33:31.181Z,24.99
2022-08-12T10:34:34.509Z,25.36
2022-08-12T10:35:38.579Z,25.20
2022-08-12T10:36:43.186Z,25.15
2022-08-12T10:38:34.720Z,24.96
2022-08-12T10:40:01.501Z,25.32
2022-08-12T10:40:57.850Z,25.39
2022-08-12T10:42:29.287Z,25.56
2022-08-12T10:43:56.551Z,25.23
2022-08-12T10:45:09.204Z,25.39
2022-08-12T10:46:19.173Z,25.08
2022-08-12T10:47:26.009Z,25.20
2022-08-12T10:49:05.641Z,25.06
2022-08-12T10:50:29.676Z,25.37
2022-08-12T10:52:04.229Z,25.36
2022-08-12T10:53:08.761Z,25.26
2022-08-12T10:54:14.574Z,25.41
2022-08-12T10:55:19.037Z,25.38
2022-08-12T10:56:22.331Z,25.39
2022-08-12T10:58:13.207Z,25.52
2022-08-12T10:58:49.331Z,25.32
2022-08-12T11:00:31.778Z,25.43
2022-08-12T11:03:01.597Z,25.18
2022-08-12T11:04:28.004Z,25.27
2022-08-12T11:04:34.360Z,25.49
2022-08-12T11:07:02.992Z,25.67
2022-08-12T11:07:10.113Z,25.42
2022-08-12T11:08:38.249Z,25.59
2022-08-12T11:09:54.314Z,26.02
2022-08-12T11:11:06.274Z,25.75
2022-08-12T11:12:54.890Z,26.04
2022-08-12T11:13:46.936Z,25.89
2022-08-12T11:14:52.313Z,25.90
2022-08-12T11:16:03.368Z,25.74
2022-08-12T11:17:43.301Z,26.00
2022-08-12T11:18:40.939Z,26.15
2022-08-12T11:19:44.026Z,26.29
2022-08-12T11:20:48.851Z,26.13
2022-08-12T11:21:58.423Z,26.26
2022-08-12T11:23:24.940Z,26.28
2022-08-12T11:24:30.633Z,26.34
2022-08-12T11:25:42.317Z,26.21
2022-08-12T11:26:58.482Z,26.30
2022-08-12T11:28:01.494Z,26.21
2022-08-12T11:29:06.098Z,26.37
2022-08-12T11:30:31.649Z,26.06
2022-08-12T11:31:52.657Z,26.02
2022-08-12T11:33:11.643Z,26.10
2022-08-12T11:34:52.798Z,26.18
2022-08-12T11:35:43.782Z,26.35
2022-08-12T11:36:56.643Z,26.21
2022-08-12T11:38:01.887Z,26.31
2022-08-12T11:39:05.321Z,26.34
2022-08-12T11:41:11.447Z,26.42
2022-08-12T11:42:14.201Z,26.36
2022-08-12T11:43:18.912Z,26.30
2022-08-12T11:44:36.687Z,26.30
2022-08-12T11:45:53.314Z,26.47
2022-08-12T11:46:59.130Z,26.30
2022-08-12T11:48:02.155Z,26.66
2022-08-12T11:49:07.989Z,26.52
2022-08-12T11:50:11.745Z,26.67
2022-08-12T11:51:22.172Z,26.58
2022-08-12T11:52:54.875Z,26.42
2022-08-12T11:53:58.886Z,26.82
2022-08-12T11:55:01.977Z,26.73
2022-08-12T11:56:06.833Z,26.75
2022-08-12T11:58:01.170Z,26.98
2022-08-12T11:59:57.468Z,26.92
2022-08-12T12:02:02.376Z,26.93
2022-08-12T12:02:47.479Z,26.92
2022-08-12T12:03:49.987Z,26.97
2022-08-12T12:04:53.869Z,26.88
2022-08-12T12:05:56.248Z,26.98
2022-08-12T12:07:07.055Z,26.78
2022-08-12T12:08:38.416Z,27.03
2022-08-12T12:09:53.605Z,27.06
2022-08-12T12:10:56.384Z,26.92
2022-08-12T12:12:00.959Z,27.20
2022-08-12T12:13:03.707Z,27.07
2022-08-12T12:14:14.082Z,26.93
2022-08-12T12:15:24.864Z,27.15
2022-08-12T12:16:29.629Z,26.93
2022-08-12T12:17:38.798Z,26.86
2022-08-12T12:18:41.079Z,26.87
2022-08-12T12:19:46.132Z,26.62
2022-08-12T12:20:49.475Z,26.78
2022-08-12T12:21:51.667Z,26.78
2022-08-12T12:22:53.865Z,26.70
2022-08-12T12:24:00.768Z,27.00
2022-08-12T12:25:12.964Z,26.91
2022-08-12T12:26:35.050Z,26.96
2022-08-12T12:28:04.727Z,27.06
2022-08-12T12:30:13.602Z,26.89
2022-08-12T12:30:34.945Z,26.96
2022-08-12T12:32:06.933Z,26.95
2022-08-12T12:32:59.738Z,27.14
2022-08-12T12:34:01.939Z,26.90
2022-08-12T12:35:14.686Z,26.79
2022-08-12T12:36:30.925Z,26.86
2022-08-12T12:38:03.667Z,26.89
2022-08-12T12:38:55.674Z,26.93
2022-08-12T12:39:58.734Z,26.80
2022-08-12T12:41:16.278Z,26.97
2022-08-12T12:42:42.553Z,26.74
2022-08-12T12:44:04.111Z,26.93
2022-08-12T12:45:19.134Z,27.09
2022-08-12T12:46:25.216Z,27.03
2022-08-12T12:47:30.158Z,26.76
2022-08-12T12:48:32.770Z,26.84
2022-08-12T12:49:35.048Z,26.98
2022-08-12T12:50:45.638Z,26.81
2022-08-12T12:52:18.400Z,26.75
2022-08-12T12:54:07.949Z,26.58
2022-08-12T12:55:00.815Z,26.45
2022-08-12T12:56:03.720Z,26.73
2022-08-12T12:57:06.521Z,26.55
2022-08-12T12:58:14.293Z,26.55
2022-08-12T12:59:55.993Z,26.38
2022-08-12T13:00:50.100Z,26.55
2022-08-12T13:01:53.617Z,26.64
2022-08-12T13:02:57.017Z,26.37
2022-08-12T13:04:02.237Z,26.23
2022-08-12T13:05:13.943Z,26.39
2022-08-12T13:06:19.120Z,26.62
2022-08-12T13:07:54.251Z,26.39
2022-08-12T13:08:49.505Z,26.47
2022-08-12T13:09:51.709Z,26.32
2022-08-12T13:10:58.658Z,26.26
2022-08-12T13:12:10.429Z,26.11
2022-08-12T13:14:07.475Z,26.04
2022-08-12T13:14:35.268Z,25.95
2022-08-12T13:15:43.886Z,26.05
2022-08-12T13:16:50.158Z,25.87
2022-08-12T13:18:03.149Z,25.71
2022-08-12T13:19:07.676Z,25.71
2022-08-12T13:20:12.799Z,25.82
2022-08-12T13:21:36.794Z,25.71
2022-08-12T13:22:46.018Z,25.76
2022-08-12T13:23:50.518Z,25.56
2022-08-12T13:24:57.713Z,25.97
2022-08-12T13:26:00.496Z,26.48
2022-08-12T13:27:05.496Z,26.30
2022-08-12T13:28:09.790Z,26.46
2022-08-12T13:29:15.358Z,26.53
2022-08-12T13:30:23.730Z,26.81
2022-08-12T13:31:27.138Z,26.76
2022-08-12T13:32:30.875Z,26.58
2022-08-12T13:34:32.053Z,26.71
2022-08-12T13:35:04.703Z,26.54
2022-08-12T13:36:21.134Z,26.23
2022-08-12T13:37:26.699Z,25.98
2022-08-12T13:38:52.230Z,26.17
2022-08-12T13:39:56.973Z,25.99
2022-08-12T13:40:59.173Z,26.07
2022-08-12T13:42:01.359Z,25.86
2022-08-12T13:43:07.444Z,26.15
2022-08-12T13:44:13.295Z,26.10
2022-08-12T13:45:21.420Z,26.15
2022-08-12T13:46:25.612Z,26.16
2022-08-12T13:47:30.916Z,25.78
2022-08-12T13:48:45.772Z,25.93
2022-08-12T13:49:53.869Z,26.07
2022-08-12T13:51:00.697Z,26.18
2022-08-12T13:52:06.595Z,26.00
2022-08-12T13:53:24.371Z,26.20
2022-08-12T13:54:34.855Z,26.28
2022-08-12T13:55:42.418Z,26.30
2022-08-12T13:56:51.382Z,26.40
2022-08-12T13:57:56.406Z,26.13
2022-08-12T13:59:05.732Z,25.79
2022-08-12T14:00:14.950Z,25.35
2022-08-12T14:01:23.276Z,25.47
2022-08-12T14:02:25.537Z,25.30
2022-08-12T14:03:28.324Z,25.42
2022-08-12T14:04:30.939Z,25.61
2022-08-12T14:05:38.209Z,25.87
2022-08-12T14:06:44.863Z,25.96
2022-08-12T14:08:03.627Z,25.93
2022-08-12T14:09:17.663Z,25.74
2022-08-12T14:10:50.996Z,25.93
2022-08-12T14:11:59.581Z,26.22
2022-08-12T14:13:17.152Z,26.17
2022-08-12T14:14:35.702Z,26.33
2022-08-12T14:15:47.822Z,26.21
2022-08-12T14:16:52.019Z,26.22
2022-08-12T14:17:54.850Z,26.04
2022-08-12T14:18:58.368Z,26.07
2022-08-12T14:20:16.214Z,26.13
2022-08-12T14:21:22.508Z,25.99
2022-08-12T14:22:26.009Z,26.29
2022-08-12T14:24:07.947Z,26.45
2022-08-12T14:24:55.366Z,26.34
2022-08-12T14:25:59.009Z,26.22
2022-08-12T14:27:02.167Z,26.23
2022-08-12T14:28:17.130Z,25.82
2022-08-12T14:29:37.708Z,25.97
2022-08-12T14:31:01.074Z,25.79
2022-08-12T14:32:07.769Z,25.59
2022-08-12T14:33:19.633Z,25.63
2022-08-12T14:34:28.450Z,25.63
2022-08-12T14:35:40.983Z,25.73
2022-08-12T14:36:47.073Z,26.03
2022-08-12T14:37:58.149Z,25.83
2022-08-12T14:39:06.591Z,25.93
2022-08-12T14:40:09.507Z,26.17
2022-08-12T14:41:14.000Z,26.06
2022-08-12T14:42:17.827Z,26.08
2022-08-12T14:43:20.955Z,25.81
2022-08-12T14:44:57.797Z,26.09
2022-08-12T14:45:52.011Z,25.84
2022-08-12T14:46:57.068Z,26.06
2022-08-12T14:48:03.644Z,25.52
2022-08-12T14:49:27.545Z,25.39
2022-08-12T14:50:58.127Z,25.29
2022-08-12T14:52:43.425Z,25.30
2022-08-12T14:55:36.188Z,25.54
2022-08-12T14:56:59.473Z,25.61
2022-08-12T14:57:35.352Z,25.35
2022-08-12T14:59:00.005Z,25.68
2022-08-12T15:00:23.174Z,25.60
2022-08-12T15:01:39.384Z,24.92
2022-08-12T15:02:45.599Z,24.71
2022-08-12T15:03:53.903Z,24.70
2022-08-12T15:05:03.584Z,24.90
2022-08-12T15:06:43.984Z,25.01
2022-08-12T15:07:50.361Z,25.02
2022-08-12T15:09:00.528Z,25.04
2022-08-12T15:10:03.719Z,25.15
2022-08-12T15:11:15.575Z,25.17
2022-08-12T15:12:24.742Z,25.16
2022-08-12T15:13:26.999Z,25.38
2022-08-12T15:14:30.401Z,25.01
2022-08-12T15:15:43.785Z,25.17
2022-08-12T15:16:48.667Z,25.38
2022-08-12T15:17:59.710Z,25.39
2022-08-12T15:19:25.825Z,25.25
2022-08-12T15:20:37.562Z,25.13
2022-08-12T15:22:37.939Z,25.38
2022-08-12T15:23:17.959Z,25.31
2022-08-12T15:24:23.341Z,25.19
2022-08-12T15:25:28.036Z,25.59
2022-08-12T15:26:40.775Z,25.22
2022-08-12T15:28:04.457Z,25.58
2022-08-12T15:29:06.593Z,25.01
2022-08-12T15:30:12.778Z,25.24
2022-08-12T15:31:27.479Z,25.18
2022-08-12T15:32:34.892Z,25.23